Time;durP1;ratioP1;P1;durP2;ratioP2;P2;SDS_P1;SDS_P2;PMS_P1;PMS_P2;Temp;Humidity;BMP_temperature;BMP_pressure;BME280_temperature;BME280_humidity;BME280_pressure;Samples;Min_cycle;Max_cycle;Signal;HPM_P1;HPM_P2
2024/01/01 00:01:04;;;;;;;4.13;3.73;;;;;;;4.57;nan;-17625.66;4994733;28;20633;-66
2024/01/01 00:03:30;;;;;;;6.67;4.93;;;;;;;4.56;nan;-17625.47;4994946;28;20192;-65
2024/01/01 00:05:55;;;;;;;6.03;4.67;;;;;;;4.34;nan;-17621.59;4994796;28;20731;-63
2024/01/01 00:08:20;;;;;;;6.77;4.30;;;;;;;4.70;nan;-17628.09;4994548;28;20231;-64
2024/01/01 00:10:47;;;;;;;4.83;4.27;;;;;;;4.70;nan;-17311.88;4994601;28;20251;-65
2024/01/01 00:13:12;;;;;;;7.70;5.23;;;;;;;4.42;nan;-16990.94;4994610;28;20609;-64
2024/01/01 00:15:38;;;;;;;3.63;3.40;;;;;;;4.33;nan;-16989.34;4994869;28;20219;-65
2024/01/01 00:18:03;;;;;;;9.33;5.03;;;;;;;4.55;nan;-16993.00;4994863;28;20251;-63
2024/01/01 00:20:29;;;;;;;5.70;5.20;;;;;;;4.20;nan;-16987.19;4994967;28;20167;-65
2024/01/01 00:22:54;;;;;;;8.27;5.13;;;;;;;4.50;nan;-17624.41;4994233;28;20200;-63
2024/01/01 00:25:20;;;;;;;7.50;5.60;;;;;;;4.53;nan;-17308.81;4994255;28;20177;-64
2024/01/01 00:27:45;;;;;;;6.93;5.33;;;;;;;4.25;nan;-17304.00;4994786;28;20177;-65
2024/01/01 00:30:11;;;;;;;6.23;4.93;;;;;;;4.29;nan;-17304.78;4994602;28;20209;-64
2024/01/01 00:32:36;;;;;;;6.83;5.07;;;;;;;4.45;nan;-17307.50;4994834;28;20278;-64
2024/01/01 00:35:02;;;;;;;4.37;3.97;;;;;;;4.35;nan;-17305.81;4994404;28;20605;-64
2024/01/01 00:37:27;;;;;;;6.20;5.67;;;;;;;4.43;nan;-17307.22;4994236;28;20307;-63
2024/01/01 00:39:54;;;;;;;9.37;5.57;;;;;;;4.43;nan;-17307.16;4994596;28;20563;-64
2024/01/01 00:42:20;;;;;;;9.13;7.13;;;;;;;4.31;nan;-16989.00;4994266;28;20267;-64
2024/01/01 00:44:45;;;;;;;6.87;5.33;;;;;;;4.49;nan;-16992.06;4994458;28;20184;-66
2024/01/01 00:47:11;;;;;;;7.53;4.13;;;;;;;4.36;nan;-16673.75;4994354;28;20181;-65
2024/01/01 00:49:36;;;;;;;5.33;4.87;;;;;;;4.32;nan;-16673.16;4994388;28;20231;-65
2024/01/01 00:52:02;;;;;;;3.53;3.27;;;;;;;4.31;nan;-16672.91;4993817;28;20177;-64
2024/01/01 00:54:28;;;;;;;6.97;4.20;;;;;;;4.06;nan;-16984.72;4994613;28;20656;-65
2024/01/01 00:56:54;;;;;;;5.23;4.73;;;;;;;4.13;nan;-16985.94;4993966;28;20299;-64
2024/01/01 00:59:21;;;;;;;11.57;8.03;;;;;;;3.98;nan;-16983.44;4994189;28;20237;-66
2024/01/01 01:01:46;;;;;;;6.70;5.13;;;;;;;3.85;nan;-17612.91;4993933;28;20708;-65
2024/01/01 01:04:12;;;;;;;6.33;5.23;;;;;;;3.90;nan;-17613.81;4993911;28;20311;-64
2024/01/01 01:06:37;;;;;;;6.13;4.73;;;;;;;3.80;nan;-17611.91;4993862;28;20184;-64
2024/01/01 01:09:03;;;;;;;5.07;4.37;;;;;;;3.81;nan;-17612.19;4993847;28;20523;-66
2024/01/01 01:11:29;;;;;;;6.00;5.50;;;;;;;3.79;nan;-17611.75;4994073;28;20184;-64
2024/01/01 01:13:56;;;;;;;4.97;4.27;;;;;;;3.77;nan;-17611.38;4993815;28;20176;-66
2024/01/01 01:16:21;;;;;;;7.50;5.87;;;;;;;4.07;nan;-17616.81;4993452;28;20568;-64
2024/01/01 01:18:47;;;;;;;9.73;6.43;;;;;;;4.02;nan;-17931.66;4993556;28;20176;-64
2024/01/01 01:21:13;;;;;;;4.23;3.90;;;;;;;3.74;nan;-18242.19;4993502;28;20188;-66
2024/01/01 01:23:39;;;;;;;6.90;5.60;;;;;;;3.96;nan;-18246.50;4993909;28;20278;-64
2024/01/01 01:26:04;;;;;;;7.67;5.23;;;;;;;3.84;nan;-18559.88;4993926;28;20178;-64
2024/01/01 01:28:30;;;;;;;4.00;3.57;;;;;;;3.71;nan;-18872.91;4993335;28;20176;-67
2024/01/01 01:30:55;;;;;;;8.67;5.50;;;;;;;3.84;nan;-18559.88;4993506;28;20256;-67
2024/01/01 01:33:20;;;;;;;5.20;4.80;;;;;;;3.44;nan;-18867.56;4993669;28;20165;-63
2024/01/01 01:35:46;;;;;;;5.20;4.80;;;;;;;3.50;nan;-19184.13;4992966;28;20232;-65
2024/01/01 01:38:11;;;;;;;5.97;5.33;;;;;;;3.90;nan;-19823.50;4993239;28;20644;-63
2024/01/01 01:40:37;;;;;;;5.80;4.57;;;;;;;3.80;nan;-20136.84;4993348;28;20219;-64
2024/01/01 01:43:02;;;;;;;8.03;7.00;;;;;;;3.91;nan;-20454.81;4993023;28;20188;-67
2024/01/01 01:45:27;;;;;;;6.17;5.47;;;;;;;3.94;nan;-20455.50;4993345;28;20561;-63
2024/01/01 01:47:54;;;;;;;6.80;5.67;;;;;;;3.52;nan;-20446.06;4993115;28;20593;-67
2024/01/01 01:50:20;;;;;;;8.00;4.37;;;;;;;3.46;nan;-20129.50;4992939;28;20180;-63
2024/01/01 01:52:47;;;;;;;6.80;5.97;;;;;;;3.67;nan;-20133.94;4993526;28;20774;-65
2024/01/01 01:55:14;;;;;;;8.67;5.43;;;;;;;3.40;nan;-20128.16;4992916;28;20173;-65
2024/01/01 01:57:40;;;;;;;3.73;3.40;;;;;;;3.36;nan;-20127.16;4993102;28;20274;-61
2024/01/01 02:00:06;;;;;;;8.67;5.53;;;;;;;3.55;nan;-20131.50;4991989;28;20274;-62
2024/01/01 02:02:37;;;;;;;5.73;5.00;;;;;;;3.45;nan;-20444.47;4992860;28;20573;-63
2024/01/01 02:05:06;;;;;;;4.90;4.50;;;;;;;3.33;nan;-20757.03;4992598;28;20192;-66
2024/01/01 02:07:32;;;;;;;7.53;6.43;;;;;;;3.22;nan;-20754.47;4992781;28;20173;-64
2024/01/01 02:09:58;;;;;;;4.10;3.67;;;;;;;3.34;nan;-21072.34;4992844;28;20177;-66
2024/01/01 02:12:23;;;;;;;5.17;3.80;;;;;;;3.41;nan;-21074.13;4992622;28;20177;-65
2024/01/01 02:14:49;;;;;;;5.17;4.17;;;;;;;3.40;nan;-21073.88;4992668;28;20629;-66
2024/01/01 02:17:16;;;;;;;7.07;5.07;;;;;;;3.31;nan;-21071.75;4992323;28;20558;-62
2024/01/01 02:19:42;;;;;;;6.70;6.10;;;;;;;3.33;nan;-21072.22;4992495;28;20173;-65
2024/01/01 02:22:07;;;;;;;5.63;4.07;;;;;;;3.07;nan;-21381.03;4992685;28;20302;-61
2024/01/01 02:24:33;;;;;;;6.77;5.53;;;;;;;3.22;nan;-21384.69;4991643;28;20280;-64
2024/01/01 02:26:58;;;;;;;10.47;5.23;;;;;;;3.25;nan;-21700.50;4992498;28;20180;-67
2024/01/01 02:29:24;;;;;;;7.97;5.20;;;;;;;3.22;nan;-21699.75;4992120;28;20366;-64
2024/01/01 02:31:49;;;;;;;5.83;4.77;;;;;;;2.85;nan;-21690.53;4991989;28;20278;-68
2024/01/01 02:34:18;;;;;;;5.13;4.63;;;;;;;3.01;nan;-21694.66;4991971;28;20279;-64
2024/01/01 02:36:43;;;;;;;5.60;4.90;;;;;;;2.76;nan;-21688.28;4992187;28;20565;-64
2024/01/01 02:39:10;;;;;;;4.60;3.90;;;;;;;2.93;nan;-22007.53;4992481;28;20226;-64
2024/01/01 02:41:36;;;;;;;5.73;5.17;;;;;;;2.86;nan;-22005.75;4992058;28;20208;-62
2024/01/01 02:44:02;;;;;;;9.37;4.57;;;;;;;3.07;nan;-22011.09;4992072;28;20659;-64
2024/01/01 02:46:28;;;;;;;6.63;4.67;;;;;;;2.90;nan;-22006.66;4992180;28;20180;-62
2024/01/01 02:48:53;;;;;;;9.73;5.23;;;;;;;2.96;nan;-22008.16;4991665;28;20177;-63
2024/01/01 02:51:18;;;;;;;4.33;3.70;;;;;;;2.66;nan;-21686.06;5007094;28;20339;-66
2024/01/01 02:53:44;;;;;;;3.80;3.30;;;;;;;2.65;nan;-21685.81;4992038;28;20181;-64
2024/01/01 02:56:20;;;;;;;5.83;5.07;;;;;;;2.62;nan;-21685.06;4992668;28;20591;-65
2024/01/01 02:58:46;;;;;;;5.90;4.40;;;;;;;2.72;nan;-21687.31;4992072;28;20183;-65
2024/01/01 03:01:12;;;;;;;4.63;4.13;;;;;;;2.31;nan;-21677.22;4991869;28;20264;-65
2024/01/01 03:03:38;;;;;;;6.60;4.73;;;;;;;2.45;nan;-21995.44;4991788;28;20696;-64
2024/01/01 03:06:03;;;;;;;5.07;3.93;;;;;;;2.65;nan;-22000.53;4992006;28;20171;-63
2024/01/01 03:08:29;;;;;;;4.93;4.47;;;;;;;2.38;nan;-22308.13;4991618;28;20169;-65
2024/01/01 03:10:54;;;;;;;7.50;5.63;;;;;;;2.41;nan;-22308.88;4991741;28;20275;-64
2024/01/01 03:13:20;;;;;;;7.57;4.70;;;;;;;2.48;nan;-22310.84;4991601;28;20676;-65
2024/01/01 03:15:45;;;;;;;6.60;4.63;;;;;;;2.66;nan;-22630.19;4989991;28;20224;-66
2024/01/01 03:18:12;;;;;;;4.07;3.67;;;;;;;2.63;nan;-22629.41;4991921;28;20295;-64
2024/01/01 03:20:38;;;;;;;5.27;4.77;;;;;;;2.57;nan;-22627.81;4991831;28;20702;-65
2024/01/01 03:23:04;;;;;;;6.63;5.03;;;;;;;2.44;nan;-22624.38;4991671;28;20176;-67
2024/01/01 03:25:29;;;;;;;5.53;4.97;;;;;;;2.40;nan;-22623.19;4991581;28;20553;-64
2024/01/01 03:27:55;;;;;;;4.40;4.00;;;;;;;2.51;nan;-22940.78;4991756;28;20173;-64
2024/01/01 03:30:21;;;;;;;10.10;6.17;;;;;;;2.56;nan;-22942.13;4989464;28;20189;-63
2024/01/01 03:32:47;;;;;;;7.23;5.43;;;;;;;2.56;nan;-22942.13;4987312;28;20216;-62
2024/01/01 03:35:13;;;;;;;6.77;5.40;;;;;;;2.60;nan;-23257.81;4991519;28;20699;-63
2024/01/01 03:37:38;;;;;;;5.63;4.60;;;;;;;2.34;nan;-23250.66;4991436;28;20582;-62
2024/01/01 03:40:06;;;;;;;5.70;5.10;;;;;;;2.63;nan;-23573.22;4991578;28;20564;-65
2024/01/01 03:42:31;;;;;;;3.70;3.40;;;;;;;2.36;nan;-23565.63;4991850;28;20181;-66
2024/01/01 03:44:57;;;;;;;4.53;4.13;;;;;;;2.80;nan;-23577.81;4991365;28;20183;-67
2024/01/01 03:47:23;;;;;;;5.50;4.10;;;;;;;2.99;nan;-23897.72;4991619;28;20640;-65
2024/01/01 03:49:48;;;;;;;4.93;4.50;;;;;;;2.79;nan;-23577.41;4991669;28;20566;-63
2024/01/01 03:52:13;;;;;;;7.53;4.57;;;;;;;2.60;nan;-23572.38;4990479;28;20185;-63
2024/01/01 03:54:39;;;;;;;5.87;4.60;;;;;;;2.62;nan;-23572.78;4991362;28;20181;-63
2024/01/01 03:57:04;;;;;;;4.40;4.00;;;;;;;2.40;nan;-23881.03;4991292;28;20239;-62
2024/01/01 03:59:29;;;;;;;6.70;5.10;;;;;;;2.55;nan;-23885.47;4991849;28;20185;-64
2024/01/01 04:01:55;;;;;;;5.53;4.77;;;;;;;2.57;nan;-23885.88;4991257;28;20577;-66
2024/01/01 04:04:20;;;;;;;9.90;5.60;;;;;;;2.22;nan;-23876.03;4991303;28;20177;-63
2024/01/01 04:06:46;;;;;;;4.27;3.97;;;;;;;2.27;nan;-23877.47;4991286;28;20256;-66
2024/01/01 04:09:11;;;;;;;16.37;6.83;;;;;;;2.37;nan;-23880.31;4991254;28;20610;-65
2024/01/01 04:11:36;;;;;;;13.87;5.13;;;;;;;2.32;nan;-23878.75;4990939;28;20172;-64
2024/01/01 04:14:02;;;;;;;6.53;4.70;;;;;;;2.32;nan;-23878.91;4991163;28;20252;-61
2024/01/01 04:16:28;;;;;;;7.50;5.77;;;;;;;2.32;nan;-23878.91;4991097;28;20205;-63
2024/01/01 04:18:53;;;;;;;12.10;5.90;;;;;;;1.93;nan;-23867.91;4991638;28;20247;-66
2024/01/01 04:21:19;;;;;;;5.57;5.03;;;;;;;2.19;nan;-23875.31;4991142;28;20180;-65
2024/01/01 04:23:44;;;;;;;4.90;4.43;;;;;;;1.94;nan;-23868.19;4994374;28;20199;-63
2024/01/01 04:26:10;;;;;;;3.73;3.43;;;;;;;2.21;nan;-23875.75;4994427;28;20238;-63
2024/01/01 04:28:35;;;;;;;4.10;3.70;;;;;;;1.88;nan;-23866.34;4994832;28;20571;-64
2024/01/01 04:31:00;;;;;;;3.87;3.57;;;;;;;2.11;nan;-23872.91;4994704;28;20311;-65
2024/01/01 04:33:26;;;;;;;3.90;3.60;;;;;;;2.09;nan;-23872.47;4994616;28;20625;-63
2024/01/01 04:35:52;;;;;;;8.87;6.07;;;;;;;1.82;nan;-23864.75;4994483;28;20667;-65
2024/01/01 04:38:17;;;;;;;3.37;3.07;;;;;;;1.68;nan;-23860.75;4994436;28;20172;-63
2024/01/01 04:40:43;;;;;;;8.87;5.37;;;;;;;1.85;nan;-23865.63;4994436;28;20178;-66
2024/01/01 04:43:08;;;;;;;4.03;3.73;;;;;;;1.94;nan;-23868.03;4993148;28;20172;-62
2024/01/01 04:45:36;;;;;;;6.50;5.90;;;;;;;1.88;nan;-23868.16;4993929;28;20168;-63
2024/01/01 04:48:02;;;;;;;5.30;4.90;;;;;;;1.77;nan;-23865.31;4994229;28;20176;-66
2024/01/01 04:50:28;;;;;;;4.20;3.80;;;;;;;1.62;nan;-23861.03;4994229;28;20307;-64
2024/01/01 04:52:53;;;;;;;4.57;4.20;;;;;;;1.68;nan;-23862.75;4994145;28;20179;-63
2024/01/01 04:55:19;;;;;;;3.60;3.30;;;;;;;1.61;nan;-23860.59;4994264;28;20259;-65
2024/01/01 04:57:45;;;;;;;9.50;4.73;;;;;;;1.61;nan;-23860.75;4993754;28;20208;-63
2024/01/01 05:00:11;;;;;;;7.00;4.27;;;;;;;1.77;nan;-23865.31;4993943;28;20233;-64
2024/01/01 05:02:36;;;;;;;4.57;3.83;;;;;;;1.63;nan;-23861.31;4995308;28;20172;-63
2024/01/01 05:05:04;;;;;;;3.13;2.83;;;;;;;1.69;nan;-23863.03;4994246;28;20175;-65
2024/01/01 05:07:29;;;;;;;3.97;3.57;;;;;;;1.85;nan;-23867.31;4993807;28;20172;-64
2024/01/01 05:09:55;;;;;;;7.67;4.10;;;;;;;1.64;nan;-23861.59;4993955;28;20202;-66
2024/01/01 05:12:20;;;;;;;4.43;3.47;;;;;;;1.56;nan;-23859.31;4993835;28;20685;-64
2024/01/01 05:14:45;;;;;;;3.03;2.73;;;;;;;1.96;nan;-23870.59;4993769;28;20183;-66
2024/01/01 05:17:11;;;;;;;2.70;2.50;;;;;;;1.94;nan;-23870.03;4993636;28;20203;-65
2024/01/01 05:19:36;;;;;;;2.93;2.63;;;;;;;1.96;nan;-23870.59;4993991;28;20168;-65
2024/01/01 05:22:03;;;;;;;5.67;4.50;;;;;;;1.92;nan;-23869.47;4993984;28;20172;-65
2024/01/01 05:24:29;;;;;;;5.63;4.03;;;;;;;1.90;nan;-23868.75;4992489;28;20557;-62
2024/01/01 05:26:54;;;;;;;4.00;3.30;;;;;;;1.87;nan;-23867.88;4993824;28;20183;-65
2024/01/01 05:29:20;;;;;;;3.53;3.23;;;;;;;1.61;nan;-23860.59;4993128;28;20234;-66
2024/01/01 05:31:45;;;;;;;6.37;4.07;;;;;;;1.84;nan;-23867.03;4993877;28;20723;-66
2024/01/01 05:34:10;;;;;;;10.73;4.03;;;;;;;1.43;nan;-23855.59;4992291;28;20303;-62
2024/01/01 05:36:36;;;;;;;3.97;3.53;;;;;;;1.81;nan;-23866.16;4993244;28;20210;-64
2024/01/01 05:39:01;;;;;;;3.17;2.87;;;;;;;1.73;nan;-23864.16;4993324;28;20180;-65
2024/01/01 05:41:27;;;;;;;6.10;3.20;;;;;;;1.78;nan;-23865.47;4992924;28;20188;-64
2024/01/01 05:43:53;;;;;;;3.93;3.63;;;;;;;1.62;nan;-23861.03;4992656;28;20569;-66
2024/01/01 05:46:18;;;;;;;3.70;3.40;;;;;;;1.74;nan;-23864.31;4993048;28;20297;-64
2024/01/01 05:48:44;;;;;;;2.73;2.53;;;;;;;2.08;nan;-23873.88;4993281;28;20176;-66
2024/01/01 05:51:09;;;;;;;2.73;2.53;;;;;;;2.01;nan;-23872.03;4993023;28;20225;-65
2024/01/01 05:53:34;;;;;;;3.23;2.93;;;;;;;2.03;nan;-23872.59;4992929;28;20262;-66
2024/01/01 05:56:00;;;;;;;5.03;4.00;;;;;;;2.16;nan;-23876.16;4992927;28;20205;-67
2024/01/01 05:58:25;;;;;;;4.27;3.87;;;;;;;2.09;nan;-23874.31;4992778;28;20182;-64
2024/01/01 06:00:51;;;;;;;2.83;2.63;;;;;;;2.00;nan;-23871.59;4992660;28;20627;-64
2024/01/01 06:03:17;;;;;;;3.30;3.00;;;;;;;1.66;nan;-23862.03;4992929;28;20183;-64
2024/01/01 06:05:43;;;;;;;4.30;3.90;;;;;;;1.63;nan;-23861.31;4993738;28;20171;-61
2024/01/01 06:08:08;;;;;;;3.83;3.53;;;;;;;1.87;nan;-23867.88;4992918;28;20582;-61
2024/01/01 06:10:34;;;;;;;4.27;3.60;;;;;;;1.87;nan;-23868.03;4992753;28;20198;-62
2024/01/01 06:12:59;;;;;;;4.13;3.53;;;;;;;1.93;nan;-23869.75;4992419;28;20180;-65
2024/01/01 06:15:27;;;;;;;6.50;4.27;;;;;;;1.72;nan;-23863.75;4992684;28;20179;-63
2024/01/01 06:17:52;;;;;;;4.77;3.97;;;;;;;1.82;nan;-23866.47;4992573;28;20257;-66
2024/01/01 06:20:18;;;;;;;5.53;4.43;;;;;;;1.93;nan;-23869.59;4992511;28;20616;-67
2024/01/01 06:22:43;;;;;;;4.07;3.67;;;;;;;1.89;nan;-23868.47;4992919;28;20238;-64
2024/01/01 06:25:10;;;;;;;5.30;2.97;;;;;;;1.72;nan;-23863.88;4992595;28;20173;-63
2024/01/01 06:27:37;;;;;;;3.77;3.33;;;;;;;2.04;nan;-23872.88;4992160;28;20208;-65
2024/01/01 06:30:04;;;;;;;3.40;3.10;;;;;;;2.48;nan;-23885.16;4992768;28;20259;-65
2024/01/01 06:32:29;;;;;;;2.03;1.90;;;;;;;2.59;nan;-23888.31;4992838;28;20630;-63
2024/01/01 06:34:54;;;;;;;3.03;2.73;;;;;;;2.50;nan;-23885.88;4992308;28;20183;-62
2024/01/01 06:37:20;;;;;;;2.30;2.17;;;;;;;2.76;nan;-23893.00;4990882;28;20212;-62
2024/01/01 06:39:46;;;;;;;3.10;2.90;;;;;;;2.55;nan;-23887.16;4992000;28;20207;-64
2024/01/01 06:42:11;;;;;;;3.03;2.83;;;;;;;2.72;nan;-23892.03;4992130;28;20196;-65
2024/01/01 06:44:37;;;;;;;6.53;3.07;;;;;;;2.72;nan;-23892.03;4992022;28;20173;-66
2024/01/01 06:47:03;;;;;;;6.53;2.90;;;;;;;2.85;nan;-23895.59;4992338;28;20640;-66
2024/01/01 06:49:29;;;;;;;2.73;2.53;;;;;;;3.00;nan;-23900.00;4992397;28;20695;-65
2024/01/01 06:51:54;;;;;;;2.77;2.57;;;;;;;3.09;nan;-23902.44;4991972;28;20232;-65
2024/01/01 06:54:19;;;;;;;3.60;3.30;;;;;;;3.08;nan;-23902.16;4992168;28;20307;-64
2024/01/01 06:56:45;;;;;;;7.43;3.00;;;;;;;3.21;nan;-23905.84;4991743;28;20242;-66
2024/01/01 06:59:12;;;;;;;4.03;2.83;;;;;;;3.25;nan;-23907.00;5006603;28;20531;-63
2024/01/01 07:01:37;;;;;;;3.70;3.00;;;;;;;3.26;nan;-23907.28;4991978;28;20173;-63
2024/01/01 07:04:03;;;;;;;4.20;3.13;;;;;;;3.01;nan;-23900.28;4992006;28;20187;-64
2024/01/01 07:06:29;;;;;;;2.70;2.50;;;;;;;3.10;nan;-23902.72;4992371;28;20165;-63
2024/01/01 07:08:54;;;;;;;2.77;2.57;;;;;;;3.16;nan;-23904.28;4992808;28;20215;-66
2024/01/01 07:11:20;;;;;;;3.80;3.40;;;;;;;3.30;nan;-23908.28;4991549;28;20174;-67
2024/01/01 07:13:45;;;;;;;3.43;3.13;;;;;;;3.43;nan;-23911.97;4992078;28;20176;-64
2024/01/01 07:16:10;;;;;;;3.37;3.17;;;;;;;3.39;nan;-23910.97;4991386;28;20271;-63
2024/01/01 07:18:36;;;;;;;3.17;2.97;;;;;;;3.39;nan;-23910.97;4991635;28;20548;-65
2024/01/01 07:21:02;;;;;;;5.53;3.47;;;;;;;3.56;nan;-23915.81;4991830;28;20252;-64
2024/01/01 07:23:30;;;;;;;3.70;3.40;;;;;;;3.35;nan;-23909.84;4991594;28;20652;-65
2024/01/01 07:25:56;;;;;;;3.90;3.50;;;;;;;3.29;nan;-23908.13;4991452;28;20282;-65
2024/01/01 07:28:23;;;;;;;3.40;3.10;;;;;;;3.29;nan;-23908.13;4990924;28;20196;-65
2024/01/01 07:30:48;;;;;;;2.13;1.93;;;;;;;3.52;nan;-23914.53;4991415;28;20216;-63
2024/01/01 07:33:16;;;;;;;2.20;2.10;;;;;;;3.66;nan;-23918.41;4991819;28;20677;-66
2024/01/01 07:35:42;;;;;;;3.30;2.40;;;;;;;3.56;nan;-23915.81;4991586;28;20176;-65
2024/01/01 07:38:08;;;;;;;3.17;2.27;;;;;;;3.98;nan;-23925.66;4991871;28;20183;-66
2024/01/01 07:40:33;;;;;;;1.93;1.83;;;;;;;4.12;nan;-23299.00;4991132;28;20176;-64
2024/01/01 07:43:06;;;;;;;2.93;2.70;;;;;;;4.10;nan;-22982.97;4991607;28;20671;-65
2024/01/01 07:45:31;;;;;;;4.77;2.63;;;;;;;3.98;nan;-23295.31;4991620;28;20196;-66
2024/01/01 07:47:57;;;;;;;2.83;2.63;;;;;;;4.17;nan;-22984.84;4991675;28;20641;-65
2024/01/01 07:50:22;;;;;;;2.63;2.43;;;;;;;4.33;nan;-22989.16;4991335;28;20259;-65
2024/01/01 07:52:48;;;;;;;1.70;1.60;;;;;;;4.53;nan;-22678.81;4991290;28;20275;-65
2024/01/01 07:55:13;;;;;;;3.13;2.83;;;;;;;4.37;nan;-22359.28;4991280;28;20212;-65
2024/01/01 07:57:39;;;;;;;2.93;2.67;;;;;;;4.68;nan;-22682.91;4993133;28;20208;-62
2024/01/01 08:00:06;;;;;;;2.70;2.50;;;;;;;5.00;nan;-22691.22;5010351;28;20254;-65
2024/01/01 08:02:31;;;;;;;2.90;2.70;;;;;;;4.94;nan;-21426.03;4994946;28;20179;-66
2024/01/01 08:04:58;;;;;;;2.67;2.47;;;;;;;5.25;nan;-20801.28;4995228;28;20181;-66
2024/01/01 08:07:24;;;;;;;3.67;2.37;;;;;;;4.72;nan;-20473.16;4994984;28;20652;-64
2024/01/01 08:09:49;;;;;;;6.70;3.13;;;;;;;5.50;nan;-19857.78;4994756;28;20187;-62
2024/01/01 08:12:15;;;;;;;1.93;1.73;;;;;;;5.33;nan;-19221.63;4995189;28;20177;-66
2024/01/01 08:14:40;;;;;;;3.00;2.73;;;;;;;5.50;nan;-19224.94;4995114;28;20184;-65
2024/01/01 08:17:06;;;;;;;3.00;2.70;;;;;;;5.76;nan;-18913.78;4994899;28;20215;-63
2024/01/01 08:19:31;;;;;;;3.33;2.67;;;;;;;5.91;nan;-18916.59;4994812;28;20587;-65
2024/01/01 08:21:57;;;;;;;2.30;2.20;;;;;;;6.06;nan;-18919.72;4994714;28;20184;-64
2024/01/01 08:24:22;;;;;;;2.63;2.43;;;;;;;6.17;nan;-18288.09;4994691;28;20227;-66
2024/01/01 08:26:48;;;;;;;3.10;2.70;;;;;;;6.33;nan;-17657.00;4995195;28;20169;-65
2024/01/01 08:29:13;;;;;;;3.40;3.10;;;;;;;6.13;nan;-16068.41;4994636;28;20579;-63
2024/01/01 08:31:38;;;;;;;1.80;1.70;;;;;;;6.15;nan;-16385.91;4994567;28;20232;-64
2024/01/01 08:34:04;;;;;;;2.33;2.17;;;;;;;6.54;nan;-15757.31;4994404;28;20227;-62
2024/01/01 08:36:29;;;;;;;5.00;2.70;;;;;;;6.40;nan;-15755.25;4994588;28;20660;-67
2024/01/01 08:38:55;;;;;;;4.03;3.73;;;;;;;6.63;nan;-15758.72;4994615;28;20287;-66
2024/01/01 08:41:20;;;;;;;2.50;2.30;;;;;;;6.63;nan;-15441.34;4994455;28;20313;-65
2024/01/01 08:43:56;;;;;;;3.23;3.00;;;;;;;6.81;nan;-13855.91;4994615;28;20177;-65
2024/01/01 08:46:24;;;;;;;3.87;2.63;;;;;;;6.95;nan;-14810.59;4994275;28;20207;-64
2024/01/01 08:48:50;;;;;;;4.73;2.33;;;;;;;7.05;nan;-14811.88;5009345;28;20184;-63
2024/01/01 08:51:16;;;;;;;1.93;1.83;;;;;;;6.89;nan;-14492.19;4994227;28;20171;-61
2024/01/01 08:53:41;;;;;;;3.80;2.77;;;;;;;7.09;nan;-14812.41;4994772;28;20173;-65
2024/01/01 08:56:08;;;;;;;2.47;2.27;;;;;;;7.02;nan;-14176.09;4993960;28;20682;-64
2024/01/01 08:58:36;;;;;;;3.77;3.10;;;;;;;7.15;nan;-15130.91;4994393;28;20185;-63
2024/01/01 09:01:05;;;;;;;2.63;2.10;;;;;;;7.16;nan;-14177.69;4993960;28;20223;-64
2024/01/01 09:03:31;;;;;;;1.97;1.77;;;;;;;7.29;nan;-11953.34;4993858;28;20200;-63
2024/01/01 09:05:57;;;;;;;2.37;2.17;;;;;;;7.43;nan;-11318.16;4993489;28;20375;-66
2024/01/01 09:08:24;;;;;;;1.90;1.80;;;;;;;7.76;nan;-11957.31;4993773;28;20179;-63
2024/01/01 09:10:52;;;;;;;2.57;2.37;;;;;;;7.64;nan;-12274.59;4994124;28;20180;-65
2024/01/01 09:13:17;;;;;;;2.43;2.20;;;;;;;7.90;nan;-11321.66;4993905;28;20177;-63
2024/01/01 09:15:43;;;;;;;1.93;1.83;;;;;;;7.78;nan;-10365.38;4994524;28;20176;-65
2024/01/01 09:18:08;;;;;;;2.03;1.93;;;;;;;8.10;nan;-10048.50;4994214;28;20244;-65
2024/01/01 09:20:34;;;;;;;1.87;1.77;;;;;;;8.26;nan;-9411.72;4993375;28;20180;-68
2024/01/01 09:23:00;;;;;;;1.77;1.67;;;;;;;8.37;nan;-7817.25;4993339;28;20560;-64
2024/01/01 09:25:25;;;;;;;2.37;2.20;;;;;;;8.39;nan;-6540.72;4993623;28;20192;-65
2024/01/01 09:27:50;;;;;;;2.53;2.33;;;;;;;8.33;nan;-6221.56;5008608;28;20272;-64
2024/01/01 09:30:17;;;;;;;3.27;2.70;;;;;;;8.39;nan;-7498.19;4993655;28;20176;-65
2024/01/01 09:32:42;;;;;;;2.47;2.27;;;;;;;8.54;nan;-7179.16;4993851;28;20220;-63
2024/01/01 09:35:08;;;;;;;1.85;1.75;;;;;;;8.54;nan;-6540.66;4993843;28;20188;-66
2024/01/01 09:37:34;;;;;;;3.25;2.60;;;;;;;8.49;nan;-3985.69;4993251;28;20524;-65
2024/01/01 09:39:59;;;;;;;4.95;2.63;;;;;;;8.60;nan;-3346.00;4993290;28;20231;-63
2024/01/01 09:42:25;;;;;;;2.83;2.63;;;;;;;8.55;nan;-3985.41;4993250;28;20344;-65
2024/01/01 09:44:52;;;;;;;3.10;2.90;;;;;;;8.70;nan;-5582.38;4992946;28;20177;-64
2024/01/01 09:47:18;;;;;;;2.90;2.65;;;;;;;8.92;nan;-5581.91;5007980;28;20188;-62
2024/01/01 09:49:44;;;;;;;3.00;2.80;;;;;;;8.84;nan;-3344.59;4992596;28;20181;-65
2024/01/01 09:52:14;;;;;;;2.13;2.03;;;;;;;9.05;nan;-3023.56;4993390;28;20183;-62
2024/01/01 09:54:43;;;;;;;2.78;2.58;;;;;;;9.19;nan;-2702.72;4993143;28;20161;-65
2024/01/01 09:57:08;;;;;;;2.75;2.55;;;;;;;9.31;nan;-1101.19;4992931;28;20211;-63
2024/01/01 09:59:35;;;;;;;2.38;2.28;;;;;;;9.51;nan;1143.66;4993251;28;20165;-63
2024/01/01 10:02:05;;;;;;;3.30;2.47;;;;;;;9.60;nan;3068.91;4992553;28;20169;-64
2024/01/01 10:04:34;;;;;;;3.55;3.22;;;;;;;9.16;nan;2100.22;4993047;28;20180;-64
2024/01/01 10:07:00;;;;;;;4.07;3.42;;;;;;;9.96;nan;5001.03;4992706;28;20565;-67
2024/01/01 10:09:26;;;;;;;5.32;3.03;;;;;;;10.11;nan;7253.31;4992738;28;20267;-66
2024/01/01 10:11:51;;;;;;;4.13;2.97;;;;;;;10.25;nan;7256.47;4992472;28;20172;-64
2024/01/01 10:14:18;;;;;;;6.63;3.42;;;;;;;10.25;nan;8542.66;4992663;28;20558;-64
2024/01/01 10:16:44;;;;;;;2.78;2.58;;;;;;;10.32;nan;8866.28;4993849;28;20203;-63
2024/01/01 10:19:10;;;;;;;2.42;2.22;;;;;;;10.52;nan;8549.69;4992347;28;20173;-65
2024/01/01 10:21:38;;;;;;;3.75;2.67;;;;;;;10.40;nan;9190.13;5006844;28;20180;-66
2024/01/01 10:24:21;;;;;;;2.63;2.45;;;;;;;10.49;nan;11446.13;4992696;28;20168;-64
2024/01/01 10:26:48;;;;;;;3.40;3.10;;;;;;;10.91;nan;13392.72;4993024;28;20660;-65
2024/01/01 10:29:14;;;;;;;3.63;2.90;;;;;;;10.77;nan;13710.63;4992304;28;20203;-63
2024/01/01 10:31:44;;;;;;;3.92;3.22;;;;;;;10.79;nan;14678.72;4992507;28;20710;-64
2024/01/01 10:34:11;;;;;;;4.03;3.10;;;;;;;10.97;nan;14362.53;4992364;28;20542;-64
2024/01/01 10:36:37;;;;;;;2.58;2.38;;;;;;;10.97;nan;13072.25;4991973;28;20200;-69
2024/01/01 10:39:05;;;;;;;3.10;2.88;;;;;;;10.77;nan;12421.19;4992477;28;20260;-65
2024/01/01 10:41:34;;;;;;;2.78;2.17;;;;;;;10.95;nan;12104.56;4992271;28;20265;-66
2024/01/01 10:44:01;;;;;;;3.92;2.75;;;;;;;10.90;nan;13069.97;4989545;28;20617;-64
2024/01/01 10:46:29;;;;;;;3.08;2.63;;;;;;;11.13;nan;10498.19;4988869;28;20176;-66
2024/01/01 10:48:55;;;;;;;3.33;2.50;;;;;;;11.09;nan;9208.19;4992056;28;20263;-64
2024/01/01 10:51:50;;;;;;;2.22;2.10;;;;;;;11.20;nan;9533.19;4992063;28;20614;-66
2024/01/01 10:54:43;;;;;;;2.22;1.80;;;;;;;11.29;nan;10180.41;4992530;28;20193;-65
2024/01/01 10:57:38;;;;;;;2.97;2.42;;;;;;;11.55;nan;14382.38;4992580;28;20283;-64
2024/01/01 11:00:27;;;;;;;1.98;1.88;;;;;;;11.61;nan;14384.66;4992059;28;20255;-64
2024/01/01 11:02:53;;;;;;;2.58;2.38;;;;;;;11.55;nan;21817.44;5007387;28;20248;-67
2024/01/01 11:05:33;;;;;;;4.50;2.65;;;;;;;11.66;nan;23441.19;4992225;28;20620;-63
2024/01/01 11:08:00;;;;;;;7.28;2.53;;;;;;;11.67;nan;20528.66;4991885;28;20168;-63
2024/01/01 11:10:35;;;;;;;2.55;1.98;;;;;;;11.95;nan;19894.00;4991646;28;20180;-66
2024/01/01 11:13:04;;;;;;;4.45;2.25;;;;;;;12.11;nan;22815.72;4992138;28;20211;-64
2024/01/01 11:15:43;;;;;;;2.58;2.38;;;;;;;12.36;nan;26395.50;4992783;28;20640;-64
2024/01/01 11:18:21;;;;;;;3.63;2.15;;;;;;;12.40;nan;33869.56;4992091;28;20180;-63
2024/01/01 11:20:50;;;;;;;2.28;2.08;;;;;;;12.37;nan;37772.47;4991814;28;20332;-62
2024/01/01 11:23:41;;;;;;;3.22;2.03;;;;;;;12.71;nan;39706.69;4991202;28;20637;-65
2024/01/01 11:26:25;;;;;;;4.53;2.67;;;;;;;12.60;nan;41481.00;4991796;28;20183;-64
2024/01/01 11:28:57;;;;;;;3.35;2.42;;;;;;;12.54;nan;44435.28;4991970;28;20245;-63
2024/01/01 11:31:24;;;;;;;1.98;1.88;;;;;;;12.56;nan;44933.75;4991591;28;20232;-66
2024/01/01 11:34:09;;;;;;;2.13;1.90;;;;;;;12.67;nan;47081.16;4995231;28;20177;-66
2024/01/01 11:36:40;;;;;;;2.60;1.80;;;;;;;12.92;nan;48778.78;4995962;28;20200;-65
2024/01/01 11:39:06;;;;;;;3.35;2.28;;;;;;;12.73;nan;50114.91;4995559;28;20200;-66
2024/01/01 11:41:33;;;;;;;2.53;2.33;;;;;;;12.78;nan;49077.88;4996042;28;20208;-63
2024/01/01 11:44:11;;;;;;;1.92;1.80;;;;;;;12.88;nan;49311.03;4995553;28;20263;-64
2024/01/01 11:46:37;;;;;;;2.30;2.10;;;;;;;12.89;nan;50541.47;4995508;28;20562;-62
2024/01/01 11:49:03;;;;;;;3.00;2.53;;;;;;;13.13;nan;51847.97;4995211;28;20165;-64